KMCX

White County Airport

Monticello, Indiana, USA
METAR KMCX 240155Z AUTO 00000KT 10SM CLR 20/12 A3016 RMK AO2 T02040115
Observed Flight Rules
May-24 @ 01:55 UTC (11 minutes ago) Visual Flight Rules
Visibility Clouds
10 miles
  • Clear skies
Temperatures Readings
Current 20°C / 68°F
Dewpoint 12°C / 54°F
Humidity 60%
Altimeter 30.16" Hg
Pressure 1021 hPa
Elevation 206
METAR KMCX 240155Z AUTO 00000KT 10SM CLR 20/12 A3016 RMK AO2 T02040115
Observed Flight Rules
May-24 @ 01:55 UTC
(11 minutes ago)
VFR
Clouds
  • Clear skies
Temperature Dewpoint
20°C / 68°F 12°C / 54°F
Humidity Altimeter Pressure
60% 30.16" Hg 1021 hPa